Portada
METAR-TAF:

METAR-TAF

Aeropuertos :

Koror, Babeldaob, Palaos

Aeropuerto Internacional Roman Tmetuchl

latitud: 07-22N, longitud: 134-32E, altitud: 54 m

Observación

El informe se hizo hace 40 minutos, a las 14:50 UTC
Viento calma
Temperatura 25°C
Humedad 94%
Presión 1007 hPa
Visibilidad: 24.1 km
Nubes dispersas a una altura de 1600 ft
Cielo nuboso a una altura de 30000 ft

METAR: PTRO 231450Z 00000KT 15SM SCT016 BKN300 25/24 A2974

Hora: 00:30 (15:30 UTC)

Pronóstico

El informe se hizo hace 4 horas y 4 minutos, a las 11:26 UTC
Pronóstico válido del 23 a las 12 UTC al 24 a las 12 UTC
Viento 7 kt del este-sureste
Visibilidad: 10 km
Nubes dispersas a una altura de 1600 ft
Cielo nuboso a una altura de 12000 ft
Cielo nuboso a una altura de 30000 ft

TAF: PTRO 231126Z 2312/2412 12007KT P6SM SCT016 BKN120 BKN300

Observaciones y pronósticos meteorológicos de más de 4000 aeropuertos (mensajes METAR y TAF).

Los puntos amarillos y rojos representan las estaciones disponibles.

Ponga el ratón en el punto deseado para ver el nombre de la estación.

Haga clic para ver las observaciones y los pronósticos meteorológicos.

Para cambiar el mapa : haga clic en los botones verdes con una cruz de color negro para hacer un zoom, en el botón verde con un guión para alejar o en las flechas verdes para mapas adyacentes.


METAR-TAF: